首页
METAR-TAF:

METAR-TAF

机场 :

Pope Air Force Base

費耶特維爾 / Pope, 北卡罗来纳州, 美国

纬度: 35-10N, 经度: 079-02W, 海拔: 61米

当前天气观测

该预报发布于17分钟前的10:33 UTC
风速8节,风向南转西南
温度 21°C
湿度 73%
气压 1006 hPa
能見度: 16.1公里
多云层高于18000英尺
多云层高于20000英尺

METAR: KPOB 261033Z AUTO 21008KT 10SM BKN180 BKN200 21/16 A2972 RMK AO2 SLP065 $

时间: 06:50 (10:50 UTC)

预报

该预报发布于1小时和50分钟前的09:00 UTC
预报有效从26日的 09点(UTC)到 27日的 15点(UTC)
风速12节,风向西南,有时为18节阵风
能见度10公里或以上
散云层高于4000英尺
多云层高于15000英尺
成为
从 26日的 11点(UTC)到 26日的 12点(UTC)
风速12节,风向西南,有时为18节阵风
能见度10公里或以上
散云层高于1000英尺
多云层高于3000英尺
成为
从 26日的 14点(UTC)到 26日的 15点(UTC)
风速15节,风向西南,有时为25节阵风
能見度: 8000
阴天层高于3000英尺
小阵雨
短暂存在
从 26日的 17点(UTC)到 26日的 23点(UTC)
风速20节,风向西,有时为35节阵风
能見度: 3200
多云层高于2000英尺, 积雨云.
雷暴, 雨, 冰雹
成为
从 26日的 22点(UTC)到 26日的 23点(UTC)
风速12节,风向西转西北,有时为18节阵风
能见度10公里或以上
多云层高于3000英尺
阴天层高于5000英尺
成为
从 27日的 02点(UTC)到 27日的 03点(UTC)
风速9节,风向西
能见度10公里或以上
天空无云

TAF: KPOB 260900Z 2609/2715 22012G18KT 9999 SCT040 BKN150 520104 QNH2976INS BECMG 2611/2612 22012G18KT 9999 SCT010 BKN030 520104 QNH2971INS BECMG 2614/2615 22015G25KT 8000 -SHRA OVC030 QNH2965INS TEMPO 2617/2623 27020G35KT 3200 TSRAGR BKN020CB BECMG 2622/2623 30012G18KT 9999 NSW BKN030 OVC050 QNH2963INS BECMG 2702/2703 27009KT 9999 SKC WS020/30032KT 510203 QNH2984INS TX26/2621Z TN18/2612Z

超过4000个机场的气象观测和天气预报(METAR&TAF报告)。

可查询的气象台以黄色和红色小点在地图上表示。

将鼠标移到小点上方,可查看气象台名称。

然后点击查看天气观测和预报。

如需切换地图:点击带黑十字的绿色按钮放大地图;点击带横线的绿色按钮缩小地图;或者点击绿色箭头查看邻近地区的地图。


METAR-TAF: